Amissville, Virginia
Current Conditions -  °F | °C
As of 11:35 PM on Tuesday 21 Oct 2014 (Local Time) from KCJR Reporting Station
Scattered Clouds Scattered Clouds  
Wind Chill: 52°   Ceiling: Unl
Heat Index: 52°   Visibility: 10mi
Dew Point: 50°   Wind: 0mph
Humidity: 94%   Direction: NA
Pressure: 29.93"   Gusts: NA
Location:  38.67°N, 77.99°W
Report Text: KCJR 220335Z AUTO 00000KT 10SM SCT070 SCT110 11/10 A2993 RMK AO2
Loading
Personal Weather Stations






























Interactive Weather Map New forecast layout! Learn more

10-Day Weather Forecast

Advertisements
Track Severe Weather on mobile